Time;durP1;ratioP1;P1;durP2;ratioP2;P2;SDS_P1;SDS_P2;PMS_P1;PMS_P2;Temp;Humidity;BMP_temperature;BMP_pressure;BME280_temperature;BME280_humidity;BME280_pressure;Samples;Min_cycle;Max_cycle;Signal;HPM_P1;HPM_P2
2022/11/30 00:00:42;;;;;;;;;;;20.60;51.70;;;;;;6071218;29;19927;-50
2022/11/30 00:03:44;;;;;;;;;;;21.00;53.60;;;;;;6066495;29;19937;-52
2022/11/30 00:06:45;;;;;;;;;;;20.60;53.40;;;;;;6073551;29;20060;-49
2022/11/30 00:09:46;;;;;;;;;;;20.60;53.20;;;;;;6070422;28;19927;-49
2022/11/30 00:12:48;;;;;;;;;;;20.20;53.20;;;;;;6070628;29;19973;-50
2022/11/30 00:15:49;;;;;;;;;;;20.10;53.10;;;;;;6073354;29;20720;-52
2022/11/30 00:18:51;;;;;;;;;;;20.40;53.30;;;;;;6071401;28;19966;-50
2022/11/30 00:21:53;;;;;;;;;;;20.20;53.20;;;;;;6069736;28;19933;-50
2022/11/30 00:24:54;;;;;;;;;;;20.50;53.30;;;;;;6073407;29;20143;-47
2022/11/30 00:27:58;;;;;;;;;;;20.30;53.40;;;;;;6072370;29;20497;-53
2022/11/30 00:31:01;;;;;;;;;;;20.70;53.20;;;;;;6070037;29;19926;-49
2022/11/30 00:34:03;;;;;;;;;;;20.80;53.40;;;;;;6071496;29;20085;-48
2022/11/30 00:37:05;;;;;;;;;;;20.60;53.40;;;;;;6076131;29;19966;-49
2022/11/30 00:40:06;;;;;;;;;;;20.30;53.30;;;;;;6073164;28;19933;-50
2022/11/30 00:43:08;;;;;;;;;;;20.50;53.20;;;;;;6070082;29;20549;-49
2022/11/30 00:46:09;;;;;;;;;;;20.40;53.40;;;;;;6074861;29;20518;-50
2022/11/30 00:49:11;;;;;;;;;;;20.60;53.30;;;;;;6070728;29;19931;-49
2022/11/30 00:52:13;;;;;;;;;;;19.90;53.00;;;;;;6071834;29;20061;-51
2022/11/30 00:55:14;;;;;;;;;;;20.50;53.40;;;;;;6074002;29;19943;-50
2022/11/30 00:58:16;;;;;;;;;;;20.20;53.10;;;;;;6071158;29;20034;-50
2022/11/30 01:01:17;;;;;;;;;;;20.10;53.00;;;;;;6066325;29;19931;-51
2022/11/30 01:04:19;;;;;;;;;;;20.40;53.40;;;;;;6071042;28;19931;-52
2022/11/30 01:07:20;;;;;;;;;;;20.00;53.00;;;;;;6070629;29;19934;-48
2022/11/30 01:10:22;;;;;;;;;;;20.70;53.50;;;;;;6073994;29;19966;-48
2022/11/30 01:13:23;;;;;;;;;;;20.60;53.50;;;;;;6068409;29;19978;-52
2022/11/30 01:16:25;;;;;;;;;;;20.10;53.10;;;;;;6065264;28;21072;-49
2022/11/30 01:19:27;;;;;;;;;;;20.50;53.20;;;;;;6067393;29;19974;-50
2022/11/30 01:22:29;;;;;;;;;;;20.10;53.00;;;;;;6069208;29;20923;-49
2022/11/30 01:25:30;;;;;;;;;;;20.60;53.20;;;;;;6073989;29;19927;-52
2022/11/30 01:28:32;;;;;;;;;;;20.40;53.10;;;;;;6069876;29;19927;-50
2022/11/30 01:31:35;;;;;;;;;;;20.40;53.70;;;;;;6070424;29;19935;-50
2022/11/30 01:34:37;;;;;;;;;;;20.80;53.50;;;;;;6072987;29;20045;-52
2022/11/30 01:37:38;;;;;;;;;;;20.20;53.20;;;;;;6070560;29;20414;-50
2022/11/30 01:40:40;;;;;;;;;;;20.20;53.20;;;;;;6074373;29;20552;-50
2022/11/30 01:43:42;;;;;;;;;;;20.70;53.50;;;;;;6071107;29;19953;-48
2022/11/30 01:46:45;;;;;;;;;;;20.30;53.20;;;;;;6075566;29;20741;-51
2022/11/30 01:49:48;;;;;;;;;;;20.50;53.00;;;;;;6070143;29;20160;-50
2022/11/30 01:52:51;;;;;;;;;;;20.70;53.40;;;;;;6072192;29;19957;-50
2022/11/30 01:55:52;;;;;;;;;;;20.20;53.10;;;;;;6078717;29;19981;-48
2022/11/30 01:58:53;;;;;;;;;;;20.10;53.10;;;;;;6073296;29;19927;-51
2022/11/30 02:01:55;;;;;;;;;;;20.60;53.20;;;;;;6063379;28;20021;-50
2022/11/30 02:04:57;;;;;;;;;;;20.80;53.30;;;;;;6070734;29;19930;-53
2022/11/30 02:07:58;;;;;;;;;;;20.50;53.30;;;;;;6072265;29;19931;-50
2022/11/30 02:11:02;;;;;;;;;;;20.20;53.20;;;;;;6071019;29;19926;-50
2022/11/30 02:14:09;;;;;;;;;;;20.40;53.20;;;;;;6065206;29;19931;-52
2022/11/30 02:17:16;;;;;;;;;;;20.60;53.20;;;;;;6057253;29;20048;-50
2022/11/30 02:20:28;;;;;;;;;;;20.50;53.30;;;;;;6059017;29;19931;-50
2022/11/30 02:23:41;;;;;;;;;;;20.10;52.90;;;;;;6057578;29;19992;-49
2022/11/30 02:26:53;;;;;;;;;;;20.60;53.30;;;;;;6057465;29;19927;-51
2022/11/30 02:29:58;;;;;;;;;;;20.20;53.10;;;;;;6061923;29;20471;-50
2022/11/30 02:33:02;;;;;;;;;;;20.40;53.20;;;;;;6059235;29;19927;-49
2022/11/30 02:36:05;;;;;;;;;;;20.70;53.30;;;;;;6067650;29;19965;-51
2022/11/30 02:39:06;;;;;;;;;;;20.50;53.20;;;;;;6058914;29;20536;-49
2022/11/30 02:42:09;;;;;;;;;;;20.60;53.50;;;;;;6061947;29;20086;-49
2022/11/30 02:45:11;;;;;;;;;;;20.30;53.00;;;;;;6068017;29;20013;-51
2022/11/30 02:48:14;;;;;;;;;;;20.30;53.20;;;;;;6068096;29;20255;-52
2022/11/30 02:51:17;;;;;;;;;;;20.60;53.40;;;;;;6062177;29;20135;-51
2022/11/30 02:54:19;;;;;;;;;;;20.10;52.90;;;;;;6064501;29;19930;-49
2022/11/30 02:57:20;;;;;;;;;;;20.50;53.30;;;;;;6065328;29;19927;-50
2022/11/30 03:00:22;;;;;;;;;;;20.50;53.50;;;;;;6065193;28;21062;-51
2022/11/30 03:03:24;;;;;;;;;;;20.50;53.20;;;;;;6064098;29;19927;-49
2022/11/30 03:06:25;;;;;;;;;;;21.10;53.60;;;;;;6068028;29;19935;-49
2022/11/30 03:09:26;;;;;;;;;;;20.40;53.20;;;;;;6065846;29;20560;-49
2022/11/30 03:12:28;;;;;;;;;;;20.10;53.10;;;;;;6063572;29;20888;-51
2022/11/30 03:15:30;;;;;;;;;;;20.40;53.20;;;;;;6065682;29;20411;-48
2022/11/30 03:18:31;;;;;;;;;;;20.50;53.20;;;;;;6065772;29;19931;-53
2022/11/30 03:21:32;;;;;;;;;;;20.50;53.40;;;;;;6067817;29;19965;-48
2022/11/30 03:24:34;;;;;;;;;;;20.10;53.00;;;;;;6067839;29;20109;-50
2022/11/30 03:27:35;;;;;;;;;;;20.20;53.10;;;;;;6069490;29;20878;-53
2022/11/30 03:30:37;;;;;;;;;;;20.50;53.30;;;;;;6064227;29;20233;-53
2022/11/30 03:33:40;;;;;;;;;;;20.50;53.20;;;;;;6064999;29;20661;-50
2022/11/30 03:36:41;;;;;;;;;;;20.50;53.00;;;;;;6068642;29;20201;-51
2022/11/30 03:39:42;;;;;;;;;;;20.20;53.20;;;;;;6061633;29;20509;-50
2022/11/30 03:42:43;;;;;;;;;;;20.10;53.10;;;;;;6062971;29;20038;-48
2022/11/30 03:45:45;;;;;;;;;;;20.50;53.30;;;;;;6064675;29;19993;-49
2022/11/30 03:48:46;;;;;;;;;;;20.20;53.10;;;;;;6062957;29;19926;-52
2022/11/30 03:51:48;;;;;;;;;;;20.40;53.20;;;;;;6059243;29;20097;-48
2022/11/30 03:54:49;;;;;;;;;;;21.10;53.60;;;;;;6064321;29;19937;-51
2022/11/30 03:57:50;;;;;;;;;;;20.50;53.20;;;;;;6063011;28;20339;-51
2022/11/30 04:00:58;;;;;;;;;;;20.40;53.20;;;;;;6063104;28;19941;-48
2022/11/30 04:03:59;;;;;;;;;;;20.50;53.10;;;;;;6060833;29;20261;-49
2022/11/30 04:07:00;;;;;;;;;;;20.80;53.20;;;;;;6067588;29;20669;-50
2022/11/30 04:10:02;;;;;;;;;;;20.50;53.10;;;;;;6063714;29;20005;-51
2022/11/30 04:13:09;;;;;;;;;;;20.70;53.30;;;;;;6060247;29;20089;-48
2022/11/30 04:16:11;;;;;;;;;;;20.50;53.10;;;;;;6065214;29;21902;-52
2022/11/30 04:19:12;;;;;;;;;;;20.50;53.10;;;;;;6073306;29;20453;-49
2022/11/30 04:22:13;;;;;;;;;;;20.50;53.00;;;;;;6076887;28;19933;-52
2022/11/30 04:25:15;;;;;;;;;;;20.00;52.90;;;;;;6080268;29;19926;-48
2022/11/30 04:28:17;;;;;;;;;;;20.60;53.20;;;;;;6074866;29;20059;-53
2022/11/30 04:31:19;;;;;;;;;;;20.10;52.80;;;;;;6074468;29;19979;-48
2022/11/30 04:34:20;;;;;;;;;;;20.20;52.90;;;;;;6075198;29;19959;-52
2022/11/30 04:37:21;;;;;;;;;;;20.40;53.00;;;;;;6076794;29;20123;-51
2022/11/30 04:40:23;;;;;;;;;;;20.60;53.10;;;;;;6078001;29;19933;-49
2022/11/30 04:43:24;;;;;;;;;;;20.00;52.90;;;;;;6074812;29;19977;-51
2022/11/30 04:46:26;;;;;;;;;;;20.40;52.90;;;;;;6060866;29;20478;-53
2022/11/30 04:49:27;;;;;;;;;;;20.50;53.00;;;;;;6076518;29;20086;-49
2022/11/30 04:52:29;;;;;;;;;;;20.50;53.10;;;;;;6074683;29;19998;-50
2022/11/30 04:55:30;;;;;;;;;;;20.20;52.60;;;;;;6078945;29;19996;-51
2022/11/30 04:58:32;;;;;;;;;;;20.60;52.70;;;;;;6077681;29;19926;-51
2022/11/30 05:01:34;;;;;;;;;;;20.70;53.20;;;;;;6064710;29;19930;-52
2022/11/30 05:04:35;;;;;;;;;;;20.20;52.90;;;;;;6063103;29;20455;-51
2022/11/30 05:07:36;;;;;;;;;;;20.10;52.90;;;;;;6060213;29;20377;-51
2022/11/30 05:10:38;;;;;;;;;;;20.50;53.00;;;;;;6060458;29;19938;-51
2022/11/30 05:13:39;;;;;;;;;;;20.00;52.90;;;;;;6054045;29;19953;-54
2022/11/30 05:16:41;;;;;;;;;;;20.30;52.70;;;;;;6060327;29;19927;-49
2022/11/30 05:19:42;;;;;;;;;;;20.70;52.90;;;;;;6075583;29;20864;-52
2022/11/30 05:22:44;;;;;;;;;;;20.50;53.00;;;;;;6073645;29;20424;-47
2022/11/30 05:25:45;;;;;;;;;;;20.40;53.00;;;;;;6059114;29;19930;-47
2022/11/30 05:28:47;;;;;;;;;;;20.40;53.00;;;;;;6058656;29;20802;-49
2022/11/30 05:31:48;;;;;;;;;;;20.10;52.80;;;;;;6050268;29;20076;-50
2022/11/30 05:34:50;;;;;;;;;;;20.30;52.80;;;;;;6066298;29;19937;-51
2022/11/30 05:37:53;;;;;;;;;;;20.10;52.90;;;;;;6075124;29;20691;-50
2022/11/30 05:40:59;;;;;;;;;;;20.30;52.60;;;;;;6070775;29;19938;-50
2022/11/30 05:44:00;;;;;;;;;;;20.50;52.80;;;;;;6069148;29;20887;-49
2022/11/30 05:47:02;;;;;;;;;;;20.50;53.00;;;;;;6065000;29;19927;-50
2022/11/30 05:50:04;;;;;;;;;;;20.90;53.10;;;;;;6059087;29;20359;-52
2022/11/30 05:53:05;;;;;;;;;;;20.00;52.70;;;;;;6058418;29;20203;-48
2022/11/30 05:56:07;;;;;;;;;;;20.30;53.00;;;;;;6061471;29;20219;-49
2022/11/30 05:59:09;;;;;;;;;;;20.80;53.00;;;;;;6053869;29;21585;-49
2022/11/30 06:02:11;;;;;;;;;;;20.10;52.60;;;;;;6066239;29;19931;-51
2022/11/30 06:05:13;;;;;;;;;;;20.40;53.00;;;;;;6068957;29;19927;-53
2022/11/30 06:08:14;;;;;;;;;;;20.40;53.00;;;;;;6073268;29;19967;-50
2022/11/30 06:11:15;;;;;;;;;;;20.50;53.00;;;;;;6073930;29;20509;-49
2022/11/30 06:14:17;;;;;;;;;;;20.10;52.60;;;;;;6069269;29;20197;-50
2022/11/30 06:17:19;;;;;;;;;;;20.50;52.90;;;;;;6072874;29;19927;-50
2022/11/30 06:20:20;;;;;;;;;;;20.40;52.90;;;;;;6070342;29;19930;-50
2022/11/30 06:23:21;;;;;;;;;;;20.50;53.00;;;;;;6070698;29;19934;-51
2022/11/30 06:26:24;;;;;;;;;;;21.00;53.30;;;;;;6073344;29;20021;-57
2022/11/30 06:29:25;;;;;;;;;;;20.20;52.50;;;;;;6072227;29;19926;-52
2022/11/30 06:32:27;;;;;;;;;;;20.50;52.80;;;;;;6066207;29;20422;-48
2022/11/30 06:35:29;;;;;;;;;;;20.40;52.70;;;;;;6074815;29;19926;-50
2022/11/30 06:38:30;;;;;;;;;;;20.50;52.80;;;;;;6065765;29;20801;-50
2022/11/30 06:41:31;;;;;;;;;;;20.50;52.80;;;;;;6065837;29;20013;-49
2022/11/30 06:44:33;;;;;;;;;;;20.30;52.50;;;;;;6063817;29;19938;-51
2022/11/30 06:47:35;;;;;;;;;;;20.40;52.70;;;;;;6066737;28;20026;-50
2022/11/30 06:50:36;;;;;;;;;;;20.90;52.80;;;;;;6067938;29;19930;-52
2022/11/30 06:53:37;;;;;;;;;;;20.20;52.40;;;;;;6070578;29;19966;-51
2022/11/30 06:56:39;;;;;;;;;;;20.80;52.80;;;;;;6065227;29;20022;-49
2022/11/30 06:59:41;;;;;;;;;;;20.20;52.40;;;;;;6064395;29;20047;-51
2022/11/30 07:02:43;;;;;;;;;;;20.30;52.60;;;;;;6053740;29;19927;-51
2022/11/30 07:05:44;;;;;;;;;;;20.30;52.60;;;;;;6058745;29;21012;-51
2022/11/30 07:08:46;;;;;;;;;;;20.40;52.30;;;;;;6051594;29;19994;-52
2022/11/30 07:11:47;;;;;;;;;;;20.50;52.40;;;;;;6055200;29;20813;-48
2022/11/30 07:14:51;;;;;;;;;;;20.90;52.90;;;;;;6055594;29;20379;-52
2022/11/30 07:17:53;;;;;;;;;;;20.50;52.40;;;;;;6048164;29;20058;-52
2022/11/30 07:20:57;;;;;;;;;;;20.70;52.50;;;;;;6047574;29;19930;-48
2022/11/30 07:27:12;;;;;;;;;;;21.00;52.50;;;;;;6039873;29;19983;-49
2022/11/30 07:30:14;;;;;;;;;;;20.70;52.20;;;;;;6019169;29;19981;-52
2022/11/30 07:33:16;;;;;;;;;;;21.10;52.50;;;;;;6017888;29;19953;-51
2022/11/30 07:36:18;;;;;;;;;;;21.00;52.30;;;;;;6022697;29;19931;-52
2022/11/30 07:39:19;;;;;;;;;;;21.10;52.20;;;;;;6014757;28;19934;-50
2022/11/30 07:42:21;;;;;;;;;;;20.80;52.10;;;;;;6012842;28;19950;-51
2022/11/30 07:45:23;;;;;;;;;;;20.90;52.00;;;;;;6003417;29;19931;-49
2022/11/30 07:48:24;;;;;;;;;;;21.00;52.30;;;;;;5981348;29;19979;-49
2022/11/30 07:51:26;;;;;;;;;;;21.10;52.10;;;;;;5957355;29;20878;-50
2022/11/30 07:54:27;;;;;;;;;;;20.60;51.70;;;;;;5932247;29;20724;-52
2022/11/30 07:57:29;;;;;;;;;;;20.40;51.60;;;;;;5908968;29;19930;-52
2022/11/30 08:00:30;;;;;;;;;;;20.90;51.80;;;;;;5876467;29;20057;-50
2022/11/30 08:03:32;;;;;;;;;;;21.00;51.90;;;;;;5863990;29;20765;-49
2022/11/30 08:06:37;;;;;;;;;;;20.80;51.70;;;;;;5878145;29;20431;-48
2022/11/30 08:09:39;;;;;;;;;;;21.30;52.10;;;;;;5900192;29;22009;-48
2022/11/30 08:12:40;;;;;;;;;;;20.60;51.50;;;;;;5891388;29;19994;-52
2022/11/30 08:15:42;;;;;;;;;;;21.10;51.60;;;;;;5881713;29;20410;-46
2022/11/30 08:18:44;;;;;;;;;;;21.00;51.70;;;;;;5830640;29;19952;-49
2022/11/30 08:21:46;;;;;;;;;;;21.50;51.60;;;;;;5833193;28;20665;-47
2022/11/30 08:24:47;;;;;;;;;;;21.10;51.00;;;;;;5835824;29;20621;-49
2022/11/30 08:27:49;;;;;;;;;;;21.40;52.00;;;;;;5829115;29;19931;-47
2022/11/30 08:30:51;;;;;;;;;;;21.00;51.40;;;;;;5822071;28;19969;-52
2022/11/30 08:33:54;;;;;;;;;;;21.10;51.60;;;;;;5794540;28;20770;-52
2022/11/30 08:36:56;;;;;;;;;;;20.90;51.50;;;;;;5814237;29;20243;-49
2022/11/30 08:39:58;;;;;;;;;;;21.10;51.60;;;;;;5801464;28;19931;-45
2022/11/30 08:43:00;;;;;;;;;;;21.60;51.30;;;;;;5817766;29;19946;-46
2022/11/30 08:46:01;;;;;;;;;;;21.40;51.40;;;;;;5877813;28;19935;-48
2022/11/30 08:49:23;;;;;;;;;;;21.70;51.50;;;;;;5890179;29;20017;-48
2022/11/30 08:52:26;;;;;;;;;;;21.00;50.90;;;;;;5848447;29;19938;-48
2022/11/30 08:55:27;;;;;;;;;;;21.70;51.50;;;;;;5856516;29;22548;-47
2022/11/30 08:58:30;;;;;;;;;;;20.80;50.70;;;;;;5874214;29;22516;-52
2022/11/30 09:01:31;;;;;;;;;;;21.20;50.70;;;;;;5851748;29;19970;-47
2022/11/30 09:04:35;;;;;;;;;;;21.30;50.90;;;;;;5828932;29;19930;-47
2022/11/30 09:07:36;;;;;;;;;;;21.30;50.40;;;;;;5859329;28;21563;-47
2022/11/30 09:10:38;;;;;;;;;;;20.90;51.00;;;;;;5855525;29;20400;-44
2022/11/30 09:13:40;;;;;;;;;;;21.80;51.00;;;;;;5854117;29;20482;-44
2022/11/30 09:16:41;;;;;;;;;;;21.30;50.70;;;;;;5579566;29;22785;-44
2022/11/30 09:19:43;;;;;;;;;;;21.70;51.20;;;;;;5530229;28;21354;-45
2022/11/30 09:22:45;;;;;;;;;;;21.40;50.50;;;;;;5440229;28;20466;-45
2022/11/30 09:25:53;;;;;;;;;;;21.50;51.00;;;;;;5349984;29;21812;-49
2022/11/30 09:28:55;;;;;;;;;;;21.80;50.70;;;;;;5880962;29;19931;-45
2022/11/30 09:31:56;;;;;;;;;;;20.80;50.30;;;;;;5858973;28;19930;-45
2022/11/30 09:34:58;;;;;;;;;;;21.50;50.40;;;;;;5834546;29;20042;-47
2022/11/30 09:37:59;;;;;;;;;;;20.80;49.90;;;;;;5827573;29;19930;-45
2022/11/30 09:41:04;;;;;;;;;;;21.50;52.20;;;;;;5830328;29;19938;-47
2022/11/30 09:44:09;;;;;;;;;;;21.70;52.10;;;;;;5822210;29;21839;-47
2022/11/30 09:47:19;;;;;;;;;;;21.00;51.90;;;;;;5544499;29;19937;-46
2022/11/30 09:50:23;;;;;;;;;;;21.60;52.00;;;;;;5794776;29;19931;-48
2022/11/30 09:53:26;;;;;;;;;;;21.60;52.50;;;;;;5765687;29;20372;-51
2022/11/30 09:56:32;;;;;;;;;;;21.60;52.00;;;;;;5750974;29;19942;-46
2022/11/30 09:59:36;;;;;;;;;;;21.20;51.70;;;;;;5786287;29;19930;-46
2022/11/30 10:02:41;;;;;;;;;;;21.40;51.80;;;;;;5647704;29;19931;-49
2022/11/30 10:05:46;;;;;;;;;;;21.40;51.10;;;;;;5777433;28;19957;-50
2022/11/30 10:08:54;;;;;;;;;;;21.80;51.40;;;;;;5771510;29;19930;-49
2022/11/30 10:11:59;;;;;;;;;;;21.10;51.10;;;;;;5787461;29;20018;-46
2022/11/30 10:15:04;;;;;;;;;;;21.40;50.60;;;;;;5784538;29;20444;-47
2022/11/30 10:18:09;;;;;;;;;;;21.30;51.30;;;;;;5703252;29;19937;-48
2022/11/30 10:21:16;;;;;;;;;;;21.80;51.70;;;;;;5846934;29;19931;-48
2022/11/30 10:24:26;;;;;;;;;;;21.80;51.40;;;;;;5850666;29;19985;-48
2022/11/30 10:27:33;;;;;;;;;;;22.10;51.50;;;;;;5856087;29;21406;-50
2022/11/30 10:30:35;;;;;;;;;;;21.40;50.80;;;;;;5874975;29;19937;-47
2022/11/30 10:33:39;;;;;;;;;;;22.20;51.20;;;;;;5397156;29;19931;-48
2022/11/30 10:36:43;;;;;;;;;;;21.40;51.10;;;;;;5131387;29;19958;-48
2022/11/30 10:39:47;;;;;;;;;;;22.00;51.00;;;;;;5850626;29;20426;-48
2022/11/30 10:42:51;;;;;;;;;;;22.00;51.00;;;;;;5840023;29;20021;-48
2022/11/30 10:45:53;;;;;;;;;;;21.20;50.50;;;;;;5835869;28;20045;-49
2022/11/30 10:48:56;;;;;;;;;;;22.30;51.00;;;;;;5850571;29;19993;-48
2022/11/30 10:52:00;;;;;;;;;;;21.80;51.00;;;;;;5850486;29;22290;-51
2022/11/30 10:55:02;;;;;;;;;;;21.90;50.90;;;;;;5837330;29;19935;-49
2022/11/30 10:58:08;;;;;;;;;;;22.30;51.30;;;;;;5878634;29;19931;-49
2022/11/30 11:01:27;;;;;;;;;;;21.80;50.80;;;;;;5861675;28;20408;-46
2022/11/30 11:04:28;;;;;;;;;;;22.30;51.00;;;;;;5851501;28;19931;-49
2022/11/30 11:07:30;;;;;;;;;;;21.90;50.90;;;;;;5866220;29;19966;-47
2022/11/30 11:10:33;;;;;;;;;;;21.90;50.80;;;;;;5880732;29;19963;-50
2022/11/30 11:13:36;;;;;;;;;;;21.90;51.00;;;;;;5852543;29;19966;-46
2022/11/30 11:16:48;;;;;;;;;;;22.00;51.00;;;;;;5874497;29;21140;-46
2022/11/30 11:19:50;;;;;;;;;;;21.80;50.80;;;;;;5894231;29;19978;-46
2022/11/30 11:22:52;;;;;;;;;;;20.90;50.50;;;;;;5895305;29;20311;-46
2022/11/30 11:25:53;;;;;;;;;;;21.80;50.80;;;;;;5898131;29;19931;-49
2022/11/30 11:28:58;;;;;;;;;;;22.10;51.10;;;;;;5935197;29;19935;-49
2022/11/30 11:32:11;;;;;;;;;;;21.70;50.60;;;;;;5923538;28;19989;-46
2022/11/30 11:35:31;;;;;;;;;;;21.90;51.00;;;;;;5922936;29;20085;-49
2022/11/30 11:38:39;;;;;;;;;;;21.80;51.00;;;;;;5942253;29;20393;-51
2022/11/30 11:41:40;;;;;;;;;;;22.20;51.30;;;;;;5938152;29;19941;-48
2022/11/30 11:44:42;;;;;;;;;;;21.30;50.70;;;;;;5941745;29;19973;-49
2022/11/30 11:47:44;;;;;;;;;;;21.80;51.10;;;;;;5940483;29;19937;-47
2022/11/30 11:50:55;;;;;;;;;;;21.90;51.00;;;;;;5954361;29;19931;-51
2022/11/30 11:54:17;;;;;;;;;;;21.80;50.90;;;;;;5960748;29;19938;-49
2022/11/30 11:57:20;;;;;;;;;;;21.80;50.70;;;;;;5976784;29;19931;-49
2022/11/30 12:00:24;;;;;;;;;;;22.10;51.10;;;;;;5966745;29;20072;-51
2022/11/30 12:03:29;;;;;;;;;;;21.80;51.00;;;;;;5951356;29;19930;-49
2022/11/30 12:06:31;;;;;;;;;;;21.90;51.20;;;;;;5967804;29;20081;-48
2022/11/30 12:09:38;;;;;;;;;;;21.80;50.90;;;;;;5960630;28;19968;-46
2022/11/30 12:12:39;;;;;;;;;;;21.80;50.60;;;;;;5935125;29;20798;-49
2022/11/30 12:15:57;;;;;;;;;;;21.90;51.10;;;;;;5944057;29;20686;-48
2022/11/30 12:19:01;;;;;;;;;;;21.90;51.00;;;;;;5933424;29;20034;-50
2022/11/30 12:22:08;;;;;;;;;;;21.80;51.00;;;;;;5941586;29;20912;-48
2022/11/30 12:25:17;;;;;;;;;;;22.20;51.00;;;;;;5943105;29;20435;-50
2022/11/30 12:28:24;;;;;;;;;;;22.10;51.10;;;;;;5919213;29;20149;-46
2022/11/30 12:31:30;;;;;;;;;;;21.50;51.20;;;;;;5931827;29;19930;-49
2022/11/30 12:34:41;;;;;;;;;;;21.70;50.90;;;;;;5927010;29;20623;-49
2022/11/30 12:37:47;;;;;;;;;;;22.30;51.30;;;;;;5266146;29;19934;-47
2022/11/30 12:40:54;;;;;;;;;;;21.80;51.10;;;;;;5157099;28;21547;-50
2022/11/30 12:43:59;;;;;;;;;;;21.90;51.10;;;;;;5550909;28;21549;-49
2022/11/30 12:47:15;;;;;;;;;;;21.80;50.90;;;;;;5905392;29;20062;-49
2022/11/30 12:50:22;;;;;;;;;;;22.30;51.10;;;;;;5894586;29;21033;-50
2022/11/30 12:53:24;;;;;;;;;;;21.40;50.60;;;;;;5741713;29;21206;-51
2022/11/30 12:56:34;;;;;;;;;;;21.70;51.10;;;;;;5850126;28;20462;-49
2022/11/30 12:59:40;;;;;;;;;;;22.00;50.80;;;;;;5873591;29;20026;-47
2022/11/30 13:02:51;;;;;;;;;;;22.20;51.00;;;;;;5839219;28;20069;-50
2022/11/30 13:05:56;;;;;;;;;;;21.80;51.00;;;;;;5837393;29;20012;-45
2022/11/30 13:08:59;;;;;;;;;;;22.00;51.10;;;;;;5865382;29;20430;-49
2022/11/30 13:12:04;;;;;;;;;;;21.90;50.60;;;;;;5449173;28;19989;-47
2022/11/30 13:15:09;;;;;;;;;;;22.00;50.60;;;;;;5838364;29;20744;-49
2022/11/30 13:18:17;;;;;;;;;;;22.10;50.70;;;;;;5821777;29;19977;-50
2022/11/30 13:21:23;;;;;;;;;;;22.00;50.40;;;;;;5821161;29;20296;-48
2022/11/30 13:24:27;;;;;;;;;;;21.80;50.10;;;;;;5833050;29;21443;-48
2022/11/30 13:27:31;;;;;;;;;;;22.00;50.20;;;;;;5796698;29;19931;-50
2022/11/30 13:30:38;;;;;;;;;;;22.00;50.20;;;;;;5829512;28;19942;-51
2022/11/30 13:33:44;;;;;;;;;;;21.50;49.70;;;;;;5847319;29;20739;-51
2022/11/30 13:36:47;;;;;;;;;;;21.60;49.80;;;;;;5810253;29;19962;-49
2022/11/30 13:39:49;;;;;;;;;;;22.50;50.30;;;;;;5837374;29;19992;-50
2022/11/30 13:42:53;;;;;;;;;;;22.00;49.80;;;;;;5874815;29;19940;-48
2022/11/30 13:46:01;;;;;;;;;;;22.10;49.70;;;;;;5854682;29;22328;-49
2022/11/30 13:49:17;;;;;;;;;;;21.80;49.50;;;;;;5881608;29;19934;-51
2022/11/30 13:52:38;;;;;;;;;;;22.60;49.90;;;;;;5854013;28;19955;-50
2022/11/30 13:55:51;;;;;;;;;;;22.20;49.70;;;;;;5881229;28;19942;-49
2022/11/30 13:59:09;;;;;;;;;;;22.10;49.60;;;;;;5797693;29;20717;-48
2022/11/30 14:02:21;;;;;;;;;;;22.20;49.80;;;;;;5812492;29;20798;-50
2022/11/30 14:05:33;;;;;;;;;;;22.30;49.70;;;;;;5813765;29;20685;-49
2022/11/30 14:08:36;;;;;;;;;;;22.70;50.10;;;;;;5803452;29;20033;-48
2022/11/30 14:11:39;;;;;;;;;;;22.50;49.80;;;;;;5819401;29;19931;-49
2022/11/30 14:14:42;;;;;;;;;;;22.30;49.80;;;;;;5835817;29;20049;-49
2022/11/30 14:17:47;;;;;;;;;;;22.30;49.50;;;;;;5859393;29;19931;-49
2022/11/30 14:20:52;;;;;;;;;;;22.30;49.60;;;;;;5876336;28;20401;-48
2022/11/30 14:23:56;;;;;;;;;;;22.10;49.30;;;;;;5845009;29;19931;-49
2022/11/30 14:26:58;;;;;;;;;;;21.80;49.10;;;;;;5870505;29;20323;-54
2022/11/30 14:30:01;;;;;;;;;;;22.20;49.30;;;;;;5866336;29;19937;-52
2022/11/30 14:33:05;;;;;;;;;;;22.10;49.20;;;;;;5866229;29;19985;-49
2022/11/30 14:36:08;;;;;;;;;;;21.80;49.00;;;;;;5860130;29;19994;-49
2022/11/30 14:39:22;;;;;;;;;;;22.60;49.60;;;;;;5407187;29;19935;-51
2022/11/30 14:42:25;;;;;;;;;;;22.00;49.70;;;;;;5669285;29;21173;-50
2022/11/30 14:45:27;;;;;;;;;;;22.40;49.70;;;;;;5273292;28;24202;-50
2022/11/30 14:48:29;;;;;;;;;;;22.70;49.60;;;;;;5858304;29;19930;-49
2022/11/30 14:51:31;;;;;;;;;;;22.40;49.20;;;;;;5814149;29;20699;-48
2022/11/30 14:54:38;;;;;;;;;;;22.40;49.20;;;;;;5842087;28;20009;-49
2022/11/30 14:57:42;;;;;;;;;;;22.50;49.10;;;;;;5498594;28;19976;-48
2022/11/30 15:00:44;;;;;;;;;;;22.80;49.20;;;;;;5803042;29;19942;-49
2022/11/30 15:03:46;;;;;;;;;;;22.20;49.00;;;;;;5769088;29;21085;-51
2022/11/30 15:06:48;;;;;;;;;;;22.50;49.30;;;;;;5787166;29;19931;-49
2022/11/30 15:09:51;;;;;;;;;;;22.80;49.20;;;;;;5789807;29;20876;-49
2022/11/30 15:12:52;;;;;;;;;;;22.60;49.30;;;;;;5736859;29;20061;-51
2022/11/30 15:15:54;;;;;;;;;;;22.30;49.30;;;;;;5769630;29;20126;-52
2022/11/30 15:18:57;;;;;;;;;;;22.70;49.40;;;;;;5782701;29;19970;-52
2022/11/30 15:21:59;;;;;;;;;;;22.50;49.80;;;;;;5806001;29;20596;-49
2022/11/30 15:25:00;;;;;;;;;;;22.90;49.50;;;;;;5705001;29;22257;-49
2022/11/30 15:28:03;;;;;;;;;;;22.60;49.70;;;;;;5680728;23;19969;-48
2022/11/30 15:31:06;;;;;;;;;;;21.90;49.50;;;;;;5759384;28;20077;-47
2022/11/30 15:34:16;;;;;;;;;;;22.00;49.20;;;;;;5828296;28;19936;-48
2022/11/30 15:37:19;;;;;;;;;;;22.50;49.80;;;;;;5814657;28;19930;-47
2022/11/30 15:40:25;;;;;;;;;;;22.40;49.60;;;;;;5247841;28;22420;-48
2022/11/30 15:43:29;;;;;;;;;;;22.20;50.20;;;;;;5729266;28;22110;-46
2022/11/30 15:46:33;;;;;;;;;;;22.30;49.40;;;;;;5806430;28;21993;-49
2022/11/30 15:49:35;;;;;;;;;;;22.60;49.60;;;;;;5814815;28;19930;-51
2022/11/30 15:52:42;;;;;;;;;;;22.40;49.20;;;;;;5846334;28;19930;-48
2022/11/30 15:55:44;;;;;;;;;;;22.50;49.50;;;;;;5853824;28;22417;-46
2022/11/30 15:58:58;;;;;;;;;;;23.40;49.90;;;;;;5775320;28;20078;-49
2022/11/30 16:02:03;;;;;;;;;;;22.50;49.30;;;;;;5787656;28;20374;-53
2022/11/30 16:05:19;;;;;;;;;;;22.80;49.60;;;;;;5785000;28;19985;-50
2022/11/30 16:08:21;;;;;;;;;;;22.60;49.30;;;;;;5840697;28;19931;-47
2022/11/30 16:11:23;;;;;;;;;;;22.60;49.30;;;;;;5783371;28;20024;-48
2022/11/30 16:14:24;;;;;;;;;;;22.60;49.70;;;;;;5821410;28;20583;-46
2022/11/30 16:17:28;;;;;;;;;;;22.50;49.40;;;;;;5809133;28;19930;-47
2022/11/30 16:20:30;;;;;;;;;;;22.80;49.60;;;;;;5268684;28;20588;-48
2022/11/30 16:23:33;;;;;;;;;;;22.50;49.50;;;;;;5790538;28;21855;-47
2022/11/30 16:26:34;;;;;;;;;;;22.50;49.60;;;;;;5721656;28;20269;-48
2022/11/30 16:29:52;;;;;;;;;;;22.20;49.00;;;;;;5716817;28;21608;-48
2022/11/30 16:32:54;;;;;;;;;;;22.80;49.70;;;;;;5803096;28;20147;-51
2022/11/30 16:35:56;;;;;;;;;;;22.60;49.60;;;;;;5752512;28;20907;-49
2022/11/30 16:38:58;;;;;;;;;;;22.80;49.70;;;;;;5798508;28;23041;-50
2022/11/30 16:41:59;;;;;;;;;;;22.80;49.60;;;;;;5810154;28;21632;-48
2022/11/30 16:45:00;;;;;;;;;;;23.10;49.80;;;;;;5814124;28;19931;-47
2022/11/30 16:48:02;;;;;;;;;;;22.50;49.20;;;;;;5804668;29;19957;-51
2022/11/30 16:51:03;;;;;;;;;;;23.00;49.80;;;;;;5797351;28;20897;-47
2022/11/30 16:54:05;;;;;;;;;;;22.10;48.90;;;;;;5793408;28;20400;-48
2022/11/30 16:57:12;;;;;;;;;;;22.30;49.30;;;;;;5815658;28;22545;-50
2022/11/30 17:00:14;;;;;;;;;;;22.00;47.50;;;;;;5804761;28;19938;-50
2022/11/30 17:03:18;;;;;;;;;;;22.10;49.40;;;;;;5786357;28;20593;-51
2022/11/30 17:06:20;;;;;;;;;;;22.10;49.70;;;;;;5818796;28;19930;-56
2022/11/30 17:09:22;;;;;;;;;;;22.60;49.90;;;;;;5848596;29;20787;-50
2022/11/30 17:12:23;;;;;;;;;;;22.20;49.70;;;;;;5859831;28;19937;-47
2022/11/30 17:15:25;;;;;;;;;;;22.40;50.20;;;;;;5893127;29;19931;-51
2022/11/30 17:18:26;;;;;;;;;;;21.80;49.60;;;;;;5889143;28;19978;-50
2022/11/30 17:21:28;;;;;;;;;;;22.00;50.00;;;;;;5877246;29;19930;-49
2022/11/30 17:24:30;;;;;;;;;;;22.10;49.90;;;;;;5921266;28;20085;-52
2022/11/30 17:27:31;;;;;;;;;;;22.20;49.80;;;;;;5922942;29;22084;-51
2022/11/30 17:30:33;;;;;;;;;;;22.00;49.80;;;;;;5901753;28;19967;-48
2022/11/30 17:33:34;;;;;;;;;;;22.40;50.10;;;;;;5954245;28;19934;-52
2022/11/30 17:36:36;;;;;;;;;;;21.80;49.80;;;;;;5917865;29;19937;-49
2022/11/30 17:39:38;;;;;;;;;;;21.70;50.10;;;;;;5949577;29;19930;-48
2022/11/30 17:42:39;;;;;;;;;;;21.70;49.80;;;;;;5968714;28;20005;-46
2022/11/30 17:45:41;;;;;;;;;;;22.10;50.30;;;;;;5950809;28;20537;-46
2022/11/30 17:48:42;;;;;;;;;;;21.90;50.00;;;;;;5976671;29;19930;-48